createdAt,value
2018-06-28T00:01:39.192Z,101949.31
2018-06-28T00:04:06.652Z,101951.67
2018-06-28T00:06:34.288Z,101942.56
2018-06-28T00:09:00.934Z,101938.70
2018-06-28T00:11:28.574Z,101936.71
2018-06-28T00:13:56.240Z,101930.28
2018-06-28T00:16:23.825Z,101934.05
2018-06-28T00:18:51.476Z,101938.73
2018-06-28T00:21:19.086Z,101930.08
2018-06-28T00:23:46.617Z,101926.79
2018-06-28T00:26:13.266Z,101928.95
2018-06-28T00:28:39.914Z,101931.88
2018-06-28T00:31:06.550Z,101932.79
2018-06-28T00:33:33.188Z,101921.81
2018-06-28T00:35:59.817Z,101919.91
2018-06-28T00:38:26.476Z,101921.84
2018-06-28T00:40:53.129Z,101917.50
2018-06-28T00:43:20.573Z,101915.96
2018-06-28T00:45:47.204Z,101919.19
2018-06-28T00:48:13.854Z,101926.09
2018-06-28T00:50:40.505Z,101918.34
2018-06-28T00:53:07.171Z,101920.36
2018-06-28T00:55:34.771Z,101922.59
2018-06-28T00:58:01.464Z,101919.31
2018-06-28T01:00:28.128Z,101917.38
2018-06-28T01:02:54.836Z,101922.45
2018-06-28T01:05:21.512Z,101914.34
2018-06-28T01:07:48.157Z,101909.05
2018-06-28T01:10:14.804Z,101912.13
2018-06-28T01:12:42.581Z,101912.53
2018-06-28T01:15:10.268Z,101908.55
2018-06-28T01:17:36.916Z,101902.73
2018-06-28T01:20:03.929Z,101901.16
2018-06-28T01:22:30.567Z,101895.28
2018-06-28T01:24:58.169Z,101897.21
2018-06-28T01:27:24.804Z,101893.44
2018-06-28T01:29:51.444Z,101891.66
2018-06-28T01:32:18.092Z,101896.88
2018-06-28T01:34:44.736Z,101887.11
2018-06-28T01:37:12.388Z,101882.98
2018-06-28T01:39:40.153Z,101890.00
2018-06-28T01:42:12.614Z,101891.06
2018-06-28T01:44:39.280Z,101884.46
2018-06-28T01:47:05.913Z,101890.42
2018-06-28T01:49:32.552Z,101891.00
2018-06-28T01:51:59.204Z,101888.74
2018-06-28T01:54:25.857Z,101888.26
2018-06-28T01:56:52.506Z,101882.02
2018-06-28T01:59:19.168Z,101880.72
2018-06-28T02:01:45.816Z,101875.08
2018-06-28T02:04:13.499Z,101873.48
2018-06-28T02:06:40.144Z,101867.54
2018-06-28T02:09:08.776Z,101867.13
2018-06-28T02:11:36.408Z,101867.52
2018-06-28T02:14:03.165Z,101865.77
2018-06-28T02:16:30.618Z,101864.59
2018-06-28T02:18:57.261Z,101865.20
2018-06-28T02:21:24.870Z,101864.11
2018-06-28T02:23:52.508Z,101864.28
2018-06-28T02:26:19.149Z,101863.96
2018-06-28T02:28:45.842Z,101859.16
2018-06-28T02:31:13.533Z,101850.00
2018-06-28T02:33:41.281Z,101859.56
2018-06-28T02:36:08.026Z,101851.05
2018-06-28T02:38:34.730Z,101847.08
2018-06-28T02:41:02.208Z,101842.98
2018-06-28T02:43:28.849Z,101843.64
2018-06-28T02:45:55.493Z,101837.55
2018-06-28T02:48:22.203Z,101835.27
2018-06-28T02:50:48.857Z,101833.45
2018-06-28T02:53:16.284Z,101835.93
2018-06-28T02:55:43.648Z,101835.14
2018-06-28T02:58:10.290Z,101836.80
2018-06-28T03:00:36.946Z,101837.20
2018-06-28T03:03:03.600Z,101839.99
2018-06-28T03:05:30.290Z,101837.58
2018-06-28T03:07:57.691Z,101834.30
2018-06-28T03:10:24.374Z,101838.52
2018-06-28T03:12:51.036Z,101829.72
2018-06-28T03:15:17.718Z,101832.97
2018-06-28T03:17:44.353Z,101827.78
2018-06-28T03:20:11.004Z,101831.05
2018-06-28T03:22:38.258Z,101828.14
2018-06-28T03:25:05.841Z,101830.95
2018-06-28T03:27:32.492Z,101828.34
2018-06-28T03:29:59.119Z,101835.87
2018-06-28T03:32:25.765Z,101833.58
2018-06-28T03:34:52.409Z,101834.06
2018-06-28T03:37:19.041Z,101839.23
2018-06-28T03:39:46.744Z,101839.58
2018-06-28T03:42:13.404Z,101838.88
2018-06-28T03:44:40.960Z,101837.67
2018-06-28T03:47:09.712Z,101834.00
2018-06-28T03:49:37.396Z,101832.80
2018-06-28T03:52:05.020Z,101828.58
2018-06-28T03:54:32.718Z,101828.58
2018-06-28T03:56:59.390Z,101833.30
2018-06-28T03:59:26.040Z,101836.06
2018-06-28T04:01:53.626Z,101836.40
2018-06-28T04:04:21.300Z,101832.44
2018-06-28T04:06:47.976Z,101838.73
2018-06-28T04:09:14.617Z,101841.52
2018-06-28T04:11:43.489Z,101837.33
2018-06-28T04:14:10.176Z,101842.41
2018-06-28T04:16:38.761Z,101837.70
2018-06-28T04:19:05.463Z,101836.37
2018-06-28T04:21:32.916Z,101832.39
2018-06-28T04:23:59.561Z,101839.41
2018-06-28T04:26:27.120Z,101838.93
2018-06-28T04:28:53.831Z,101842.17
2018-06-28T04:31:20.470Z,101839.29
2018-06-28T04:33:47.120Z,101838.45
2018-06-28T04:36:14.674Z,101834.55
2018-06-28T04:38:43.654Z,101839.64
2018-06-28T04:41:11.126Z,101834.33
2018-06-28T04:43:38.974Z,101836.63
2018-06-28T04:46:06.638Z,101837.83
2018-06-28T04:48:34.161Z,101832.52
2018-06-28T04:51:00.844Z,101830.23
2018-06-28T04:53:28.509Z,101830.48
2018-06-28T04:55:56.165Z,101823.72
2018-06-28T04:58:23.737Z,101821.19
2018-06-28T05:00:51.425Z,101821.90
2018-06-28T05:03:18.895Z,101820.56
2018-06-28T05:05:46.497Z,101815.12
2018-06-28T05:08:13.973Z,101809.23
2018-06-28T05:10:42.637Z,101814.64
2018-06-28T05:13:12.232Z,101815.12
2018-06-28T05:15:39.849Z,101810.07
2018-06-28T05:18:07.523Z,101804.89
2018-06-28T05:20:34.477Z,101808.48
2018-06-28T05:23:01.185Z,101808.48
2018-06-28T05:25:27.851Z,101806.80
2018-06-28T05:27:55.682Z,101806.45
2018-06-28T05:30:27.428Z,101800.05
2018-06-28T05:32:54.165Z,101795.34
2018-06-28T05:35:21.776Z,101797.03
2018-06-28T05:37:48.557Z,101793.53
2018-06-28T05:40:16.180Z,101797.16
2018-06-28T05:42:43.868Z,101787.03
2018-06-28T05:45:12.030Z,101783.53
2018-06-28T05:47:39.689Z,101784.98
2018-06-28T05:50:06.337Z,101797.16
2018-06-28T05:52:33.956Z,101790.12
2018-06-28T05:55:01.599Z,101786.27
2018-06-28T05:57:29.172Z,101793.30
2018-06-28T05:59:56.814Z,101789.19
2018-06-28T06:02:23.458Z,101789.05
2018-06-28T06:04:50.149Z,101795.20
2018-06-28T06:07:16.788Z,101784.23
2018-06-28T06:09:43.429Z,101793.66
2018-06-28T06:12:10.125Z,101796.66
2018-06-28T06:14:39.097Z,101792.08
2018-06-28T06:17:05.744Z,101787.02
2018-06-28T06:19:33.209Z,101782.68
2018-06-28T06:21:59.877Z,101786.31
2018-06-28T06:24:26.572Z,101778.08
2018-06-28T06:26:53.216Z,101776.27
2018-06-28T06:29:19.867Z,101784.36
2018-06-28T06:31:46.506Z,101780.73
2018-06-28T06:34:13.154Z,101779.67
2018-06-28T06:36:39.793Z,101779.41
2018-06-28T06:39:07.324Z,101781.09
2018-06-28T06:41:33.983Z,101785.08
2018-06-28T06:44:00.634Z,101773.75
2018-06-28T06:46:27.268Z,101766.01
2018-06-28T06:48:53.924Z,101765.42
2018-06-28T06:51:20.573Z,101760.22
2018-06-28T06:53:47.227Z,101755.39
2018-06-28T06:56:13.873Z,101755.52
2018-06-28T06:58:40.504Z,101752.73
2018-06-28T07:01:08.206Z,101754.31
2018-06-28T07:03:34.893Z,101750.70
2018-06-28T07:06:01.526Z,101747.30
2018-06-28T07:08:28.553Z,101748.17
2018-06-28T07:10:55.226Z,101743.18
2018-06-28T07:13:21.869Z,101743.44
2018-06-28T07:15:48.511Z,101744.55
2018-06-28T07:18:15.169Z,101733.92
2018-06-28T07:20:42.333Z,101733.44
2018-06-28T07:23:10.144Z,101731.72
2018-06-28T07:25:36.889Z,101737.16
2018-06-28T07:28:03.569Z,101734.02
2018-06-28T07:30:30.224Z,101725.20
2018-06-28T07:32:57.098Z,101730.03
2018-06-28T07:35:23.803Z,101724.63
2018-06-28T07:37:50.574Z,101720.03
2018-06-28T07:40:17.236Z,101713.78
2018-06-28T07:42:44.397Z,101714.89
2018-06-28T07:45:11.171Z,101705.81
2018-06-28T07:47:39.880Z,101706.78
2018-06-28T07:50:07.502Z,101701.48
2018-06-28T07:52:35.306Z,101692.68
2018-06-28T07:55:02.042Z,101696.04
2018-06-28T07:57:28.706Z,101685.42
2018-06-28T07:59:55.382Z,101692.06
2018-06-28T08:02:23.032Z,101689.41
2018-06-28T08:04:49.699Z,101685.65
2018-06-28T08:07:17.378Z,101682.77
2018-06-28T08:09:44.083Z,101673.96
2018-06-28T08:12:10.781Z,101684.94
2018-06-28T08:14:37.429Z,101681.09
2018-06-28T08:17:04.112Z,101680.95
2018-06-28T08:19:31.600Z,101668.88
2018-06-28T08:21:58.897Z,101674.94
2018-06-28T08:24:26.346Z,101675.52
2018-06-28T08:26:54.084Z,101675.77
2018-06-28T08:29:21.689Z,101675.30
2018-06-28T08:31:49.427Z,101674.68
2018-06-28T08:34:17.004Z,101675.52
2018-06-28T08:36:44.610Z,101672.16
2018-06-28T08:39:13.167Z,101663.34
2018-06-28T08:41:40.778Z,101669.59
2018-06-28T08:44:09.578Z,101666.58
2018-06-28T08:46:37.257Z,101664.06
2018-06-28T08:49:04.867Z,101669.24
2018-06-28T08:51:32.434Z,101648.84
2018-06-28T08:54:00.082Z,101658.03
2018-06-28T08:56:27.582Z,101646.53
2018-06-28T08:58:55.080Z,101650.43
2018-06-28T09:01:22.714Z,101652.70
2018-06-28T09:03:50.369Z,101649.45
2018-06-28T09:06:18.077Z,101648.48
2018-06-28T09:08:45.653Z,101642.81
2018-06-28T09:11:13.333Z,101639.80
2018-06-28T09:13:40.041Z,101625.66
2018-06-28T09:16:07.528Z,101631.92
2018-06-28T09:18:34.213Z,101624.94
2018-06-28T09:21:01.759Z,101621.67
2018-06-28T09:23:29.178Z,101623.61
2018-06-28T09:25:55.825Z,101618.44
2018-06-28T09:28:22.517Z,101624.94
2018-06-28T09:30:50.045Z,101615.15
2018-06-28T09:33:17.153Z,101616.86
2018-06-28T09:35:44.657Z,101622.42
2018-06-28T09:38:12.744Z,101610.10
2018-06-28T09:40:39.760Z,101617.09
2018-06-28T09:43:06.412Z,101613.97
2018-06-28T09:45:33.052Z,101611.80
2018-06-28T09:47:59.691Z,101616.84
2018-06-28T09:50:26.447Z,101607.43
2018-06-28T09:52:53.255Z,101610.33
2018-06-28T09:55:20.077Z,101604.17
2018-06-28T09:57:46.736Z,101605.87
2018-06-28T10:00:17.853Z,101599.34
2018-06-28T10:02:44.487Z,101598.13
2018-06-28T10:05:11.161Z,101593.78
2018-06-28T10:07:38.713Z,101590.67
2018-06-28T10:10:05.364Z,101586.45
2018-06-28T10:12:32.032Z,101582.45
2018-06-28T10:14:58.672Z,101572.91
2018-06-28T10:17:25.374Z,101578.97
2018-06-28T10:19:52.857Z,101577.64
2018-06-28T10:22:19.508Z,101573.39
2018-06-28T10:24:46.140Z,101567.02
2018-06-28T10:27:13.492Z,101570.38
2018-06-28T10:29:41.125Z,101579.31
2018-06-28T10:32:09.517Z,101578.48
2018-06-28T10:34:36.189Z,101571.24
2018-06-28T10:37:02.845Z,101561.70
2018-06-28T10:39:30.456Z,101578.35
2018-06-28T10:41:58.120Z,101552.42
2018-06-28T10:44:25.692Z,101549.64
2018-06-28T10:46:52.337Z,101553.62
2018-06-28T10:49:20.001Z,101551.68
2018-06-28T10:51:47.658Z,101549.02
2018-06-28T10:54:15.204Z,101543.11
2018-06-28T10:56:43.313Z,101540.08
2018-06-28T10:59:10.942Z,101542.64
2018-06-28T11:01:37.616Z,101540.57
2018-06-28T11:04:05.306Z,101534.30
2018-06-28T11:06:32.024Z,101532.73
2018-06-28T11:08:58.688Z,101526.23
2018-06-28T11:11:25.366Z,101532.48
2018-06-28T11:13:53.410Z,101529.48
2018-06-28T11:16:21.085Z,101528.50
2018-06-28T11:18:47.806Z,101526.36
2018-06-28T11:21:14.502Z,101525.28
2018-06-28T11:23:43.052Z,101524.42
2018-06-28T11:26:10.597Z,101514.19
2018-06-28T11:28:38.276Z,101510.66
2018-06-28T11:31:05.916Z,101510.05
2018-06-28T11:33:32.780Z,101501.87
2018-06-28T11:35:59.420Z,101511.01
2018-06-28T11:38:26.131Z,101507.53
2018-06-28T11:40:52.785Z,101507.16
2018-06-28T11:43:19.474Z,101493.17
2018-06-28T11:45:46.139Z,101489.55
2018-06-28T11:48:13.708Z,101495.92
2018-06-28T11:50:41.200Z,101501.36
2018-06-28T11:53:10.097Z,101502.34
2018-06-28T11:55:37.701Z,101488.48
2018-06-28T11:58:04.460Z,101486.29
2018-06-28T12:00:31.110Z,101468.31
2018-06-28T12:02:58.711Z,101484.45
2018-06-28T12:05:26.415Z,101481.69
2018-06-28T12:07:53.908Z,101478.33
2018-06-28T12:10:20.558Z,101483.52
2018-06-28T12:12:47.375Z,101472.53
2018-06-28T12:15:14.936Z,101470.95
2018-06-28T12:17:43.624Z,101469.52
2018-06-28T12:20:12.689Z,101473.39
2018-06-28T12:22:42.250Z,101472.17
2018-06-28T12:25:09.606Z,101468.81
2018-06-28T12:27:37.161Z,101472.30
2018-06-28T12:30:03.901Z,101469.16
2018-06-28T12:32:30.553Z,101469.89
2018-06-28T12:34:57.240Z,101467.34
2018-06-28T12:37:24.933Z,101464.09
2018-06-28T12:39:51.571Z,101461.55
2018-06-28T12:42:18.211Z,101469.52
2018-06-28T12:44:44.932Z,101453.86
2018-06-28T12:47:51.618Z,101456.97
2018-06-28T12:50:18.244Z,101456.20
2018-06-28T12:52:47.750Z,101450.61
2018-06-28T12:55:16.503Z,101446.97
2018-06-28T12:57:44.653Z,101449.38
2018-06-28T13:00:12.756Z,101444.08
2018-06-28T13:02:40.749Z,101444.92
2018-06-28T13:05:08.429Z,101448.17
2018-06-28T13:07:36.114Z,101435.48
2018-06-28T13:10:03.656Z,101446.24
2018-06-28T13:12:30.613Z,101445.41
2018-06-28T13:14:57.304Z,101435.77
2018-06-28T13:17:24.024Z,101440.94
2018-06-28T13:19:50.653Z,101434.05
2018-06-28T13:22:17.316Z,101436.59
2018-06-28T13:24:44.923Z,101428.63
2018-06-28T13:27:12.820Z,101425.84
2018-06-28T13:29:40.849Z,101431.66
2018-06-28T13:32:07.508Z,101421.38
2018-06-28T13:34:34.154Z,101415.85
2018-06-28T13:37:00.817Z,101417.17
2018-06-28T13:39:27.521Z,101423.81
2018-06-28T13:41:54.257Z,101421.89
2018-06-28T13:44:21.706Z,101420.19
2018-06-28T13:46:49.334Z,101419.83
2018-06-28T13:49:16.106Z,101418.75
2018-06-28T13:51:43.733Z,101416.69
2018-06-28T13:54:10.469Z,101410.78
2018-06-28T13:56:39.091Z,101404.39
2018-06-28T13:59:06.656Z,101408.83
2018-06-28T14:01:34.496Z,101402.93
2018-06-28T14:04:02.086Z,101400.41
2018-06-28T14:06:29.689Z,101400.77
2018-06-28T14:08:57.341Z,101398.59
2018-06-28T14:11:24.829Z,101396.18
2018-06-28T14:13:52.478Z,101396.05
2018-06-28T14:16:20.113Z,101392.45
2018-06-28T14:18:47.808Z,101391.23
2018-06-28T14:21:14.845Z,101391.60
2018-06-28T14:23:42.985Z,101389.80
2018-06-28T14:26:11.061Z,101386.37
2018-06-28T14:28:37.703Z,101395.94
2018-06-28T14:31:04.401Z,101386.03
2018-06-28T14:33:32.073Z,101381.58
2018-06-28T14:35:58.732Z,101377.84
2018-06-28T14:38:25.429Z,101374.59
2018-06-28T14:40:52.072Z,101369.78
2018-06-28T14:43:19.690Z,101366.36
2018-06-28T14:45:46.396Z,101367.23
2018-06-28T14:48:14.423Z,101365.17
2018-06-28T14:50:41.276Z,101364.68
2018-06-28T14:53:07.777Z,101371.10
2018-06-28T14:55:34.447Z,101365.06
2018-06-28T14:58:01.100Z,101371.70
2018-06-28T15:00:27.758Z,101366.01
2018-06-28T15:02:54.408Z,101368.80
2018-06-28T15:05:21.108Z,101373.51
2018-06-28T15:07:47.776Z,101366.14
2018-06-28T15:10:14.492Z,101370.13
2018-06-28T15:12:43.057Z,101360.81
2018-06-28T15:15:10.725Z,101373.24
2018-06-28T15:17:37.392Z,101358.53
2018-06-28T15:20:04.557Z,101360.48
2018-06-28T15:22:31.209Z,101355.53
2018-06-28T15:24:57.866Z,101357.31
2018-06-28T15:27:24.567Z,101359.75
2018-06-28T15:29:51.188Z,101355.17
2018-06-28T15:32:17.830Z,101351.41
2018-06-28T15:34:44.555Z,101349.11
2018-06-28T15:37:13.074Z,101344.42
2018-06-28T15:39:42.992Z,101339.70
2018-06-28T15:42:10.076Z,101339.63
2018-06-28T15:44:37.692Z,101337.44
2018-06-28T15:47:05.236Z,101330.06
2018-06-28T15:49:32.829Z,101330.31
2018-06-28T15:52:00.529Z,101323.43
2018-06-28T15:54:27.949Z,101322.59
2018-06-28T15:56:55.633Z,101306.18
2018-06-28T15:59:23.229Z,101300.63
2018-06-28T16:01:50.868Z,101303.52
2018-06-28T16:04:18.612Z,101302.79
2018-06-28T16:06:46.136Z,101299.89
2018-06-28T16:09:13.848Z,101297.97
2018-06-28T16:11:42.513Z,101302.41
2018-06-28T16:14:10.341Z,101295.08
2018-06-28T16:16:37.969Z,101297.73
2018-06-28T16:19:05.665Z,101296.16
2018-06-28T16:21:33.337Z,101304.33
2018-06-28T16:23:59.985Z,101300.24
2018-06-28T16:26:26.699Z,101303.73
2018-06-28T16:28:53.347Z,101292.42
2018-06-28T16:31:20.020Z,101284.59
2018-06-28T16:33:46.713Z,101276.25
2018-06-28T16:36:13.408Z,101288.44
2018-06-28T16:38:40.058Z,101278.55
2018-06-28T16:41:06.737Z,101289.87
2018-06-28T16:43:33.440Z,101286.03
2018-06-28T16:46:00.161Z,101279.74
2018-06-28T16:48:27.773Z,101285.54
2018-06-28T16:50:55.240Z,101279.04
2018-06-28T16:53:22.864Z,101276.77
2018-06-28T16:55:49.612Z,101276.05
2018-06-28T16:58:17.064Z,101274.22
2018-06-28T17:00:43.765Z,101275.31
2018-06-28T17:03:10.420Z,101279.67
2018-06-28T17:05:37.073Z,101279.77
2018-06-28T17:08:03.753Z,101273.73
2018-06-28T17:10:31.252Z,101284.95
2018-06-28T17:12:58.867Z,101291.37
2018-06-28T17:15:25.514Z,101287.01
2018-06-28T17:17:52.177Z,101286.17
2018-06-28T17:20:18.879Z,101281.24
2018-06-28T17:22:45.573Z,101284.63
2018-06-28T17:27:40.320Z,101286.55
2018-06-28T17:30:07.777Z,101284.35
2018-06-28T17:32:35.533Z,101286.16
2018-06-28T17:35:03.172Z,101280.75
2018-06-28T17:37:30.612Z,101285.23
2018-06-28T17:39:58.177Z,101298.49
2018-06-28T17:42:24.832Z,101290.98
2018-06-28T17:44:51.477Z,101293.08
2018-06-28T17:47:19.080Z,101293.88
2018-06-28T17:49:45.813Z,101295.21
2018-06-28T17:52:13.414Z,101296.40
2018-06-28T17:54:41.067Z,101293.53
2018-06-28T17:57:07.704Z,101287.01
2018-06-28T17:59:34.340Z,101287.74
2018-06-28T18:04:27.145Z,101293.30
2018-06-28T18:06:54.704Z,101295.95
2018-06-28T18:09:21.549Z,101294.97
2018-06-28T18:11:48.200Z,101290.15
2018-06-28T18:14:14.853Z,101291.89
2018-06-28T18:16:42.698Z,101294.86
2018-06-28T18:19:10.429Z,101298.66
2018-06-28T18:21:37.093Z,101297.66
2018-06-28T18:24:03.786Z,101305.11
2018-06-28T18:26:30.421Z,101305.20
2018-06-28T18:28:57.121Z,101302.98
2018-06-28T18:31:23.774Z,101305.39
2018-06-28T18:33:50.425Z,101304.54
2018-06-28T18:36:17.078Z,101302.23
2018-06-28T18:38:43.789Z,101302.03
2018-06-28T18:41:10.441Z,101302.45
2018-06-28T18:43:39.660Z,101308.18
2018-06-28T18:46:07.654Z,101304.41
2018-06-28T18:48:35.256Z,101307.07
2018-06-28T18:51:02.938Z,101303.72
2018-06-28T18:53:30.891Z,101304.31
2018-06-28T18:55:57.913Z,101307.46
2018-06-28T18:58:25.377Z,101308.44
2018-06-28T19:00:52.964Z,101312.88
2018-06-28T19:03:20.593Z,101310.12
2018-06-28T19:05:48.153Z,101312.78
2018-06-28T19:08:15.628Z,101315.09
2018-06-28T19:10:48.064Z,101314.59
2018-06-28T19:13:16.713Z,101318.97
2018-06-28T19:15:49.155Z,101322.12
2018-06-28T19:18:16.780Z,101320.30
2018-06-28T19:20:48.189Z,101327.05
2018-06-28T19:23:20.469Z,101323.16
2018-06-28T19:25:47.208Z,101324.67
2018-06-28T19:28:14.979Z,101324.88
2018-06-28T19:30:49.728Z,101326.00
2018-06-28T19:33:16.376Z,101325.66
2018-06-28T19:35:45.122Z,101327.33
2018-06-28T19:38:13.716Z,101327.44
2018-06-28T19:40:47.022Z,101328.06
2018-06-28T19:43:14.760Z,101330.86
2018-06-28T19:45:42.598Z,101329.40
2018-06-28T19:48:09.977Z,101327.23
2018-06-28T19:50:42.445Z,101325.66
2018-06-28T19:53:12.813Z,101330.38
2018-06-28T19:55:40.651Z,101326.59
2018-06-28T19:58:07.956Z,101328.77
2018-06-28T20:00:40.342Z,101325.27
2018-06-28T20:03:12.687Z,101329.78
2018-06-28T20:05:40.708Z,101332.09
2018-06-28T20:08:07.493Z,101328.11
2018-06-28T20:10:34.172Z,101321.33
2018-06-28T20:13:06.549Z,101317.09
2018-06-28T20:15:44.784Z,101319.30
2018-06-28T20:18:17.290Z,101328.49
2018-06-28T20:20:43.945Z,101319.55
2018-06-28T20:23:10.644Z,101324.38
2018-06-28T20:25:37.304Z,101322.52
2018-06-28T20:28:09.644Z,101322.06
2018-06-28T20:30:42.968Z,101323.64
2018-06-28T20:33:15.332Z,101324.86
2018-06-28T20:35:43.105Z,101328.70
2018-06-28T20:38:10.757Z,101332.34
2018-06-28T20:40:39.341Z,101331.25
2018-06-28T20:43:06.037Z,101329.44
2018-06-28T20:45:32.688Z,101330.41
2018-06-28T20:47:59.352Z,101332.09
2018-06-28T20:50:26.988Z,101330.41
2018-06-28T20:52:53.699Z,101333.31
2018-06-28T20:55:20.362Z,101333.18
2018-06-28T20:57:47.008Z,101335.73
2018-06-28T21:00:13.912Z,101339.71
2018-06-28T21:02:40.605Z,101344.64
2018-06-28T21:05:07.319Z,101350.44
2018-06-28T21:07:34.092Z,101343.84
2018-06-28T21:10:00.989Z,101341.87
2018-06-28T21:12:28.477Z,101338.77
2018-06-28T21:14:55.140Z,101339.72
2018-06-28T21:17:21.783Z,101342.86
2018-06-28T21:19:48.552Z,101353.38
2018-06-28T21:22:15.196Z,101353.38
2018-06-28T21:24:43.747Z,101350.96
2018-06-28T21:27:10.644Z,101350.23
2018-06-28T21:29:37.305Z,101349.39
2018-06-28T21:32:04.976Z,101350.23
2018-06-28T21:34:32.540Z,101343.48
2018-06-28T21:37:00.091Z,101343.14
2018-06-28T21:39:27.570Z,101342.75
2018-06-28T21:41:55.264Z,101345.30
2018-06-28T21:44:22.889Z,101344.46
2018-06-28T21:46:50.368Z,101347.12
2018-06-28T21:49:18.057Z,101353.62
2018-06-28T21:51:45.741Z,101354.59
2018-06-28T21:54:13.344Z,101352.88
2018-06-28T21:56:40.072Z,101354.11
2018-06-28T21:59:06.759Z,101361.72
2018-06-28T22:01:34.228Z,101356.77
2018-06-28T22:04:00.884Z,101350.12
2018-06-28T22:06:27.533Z,101351.84
2018-06-28T22:08:55.053Z,101348.91
2018-06-28T22:11:21.767Z,101342.75
2018-06-28T22:13:48.432Z,101338.17
2018-06-28T22:16:15.886Z,101345.80
2018-06-28T22:18:43.977Z,101349.78
2018-06-28T22:21:12.714Z,101347.36
2018-06-28T22:23:40.049Z,101345.20
2018-06-28T22:26:07.627Z,101353.38
2018-06-28T22:28:34.320Z,101345.90
2018-06-28T22:31:02.037Z,101347.85
2018-06-28T22:33:29.624Z,101350.61
2018-06-28T22:35:56.529Z,101340.48
2018-06-28T22:38:24.124Z,101337.72
2018-06-28T22:40:51.725Z,101330.11
2018-06-28T22:43:19.224Z,101325.88
2018-06-28T22:45:45.881Z,101325.05
2018-06-28T22:48:13.672Z,101323.95
2018-06-28T22:50:40.322Z,101324.06
2018-06-28T22:53:07.897Z,101320.71
2018-06-28T22:55:34.540Z,101320.85
2018-06-28T22:58:02.040Z,101322.88
2018-06-28T23:00:29.473Z,101326.02
2018-06-28T23:02:56.132Z,101320.08
2018-06-28T23:05:22.780Z,101313.94
2018-06-28T23:07:49.441Z,101314.42
2018-06-28T23:10:16.092Z,101309.84
2018-06-28T23:12:43.573Z,101310.33
2018-06-28T23:15:10.320Z,101305.13
2018-06-28T23:17:36.988Z,101309.11
2018-06-28T23:20:03.745Z,101308.77
2018-06-28T23:22:48.449Z,101304.54
2018-06-28T23:25:15.601Z,101305.80
2018-06-28T23:27:43.344Z,101302.55
2018-06-28T23:30:10.628Z,101301.19
2018-06-28T23:32:37.298Z,101298.17
2018-06-28T23:35:04.348Z,101299.72
2018-06-28T23:37:31.016Z,101299.51
2018-06-28T23:39:57.681Z,101301.42
2018-06-28T23:42:24.319Z,101299.72
2018-06-28T23:44:50.969Z,101302.52
2018-06-28T23:47:17.653Z,101306.45
2018-06-28T23:49:44.305Z,101302.97
2018-06-28T23:52:10.957Z,101306.11
2018-06-28T23:54:37.708Z,101303.11
2018-06-28T23:57:04.353Z,101304.92
2018-06-28T23:59:31.014Z,101301.42
